createdAt,value
2022-11-20T00:01:17.106Z,8.70
2022-11-20T00:03:44.744Z,8.25
2022-11-20T00:06:15.669Z,8.57
2022-11-20T00:08:43.584Z,8.45
2022-11-20T00:11:17.066Z,9.13
2022-11-20T00:13:49.640Z,7.78
2022-11-20T00:16:20.718Z,8.55
2022-11-20T00:18:48.315Z,8.45
2022-11-20T00:21:18.829Z,8.20
2022-11-20T00:23:46.293Z,8.63
2022-11-20T00:26:19.341Z,8.13
2022-11-20T00:28:52.526Z,7.97
2022-11-20T00:31:20.212Z,7.90
2022-11-20T00:33:47.815Z,8.18
2022-11-20T00:36:20.432Z,8.05
2022-11-20T00:38:48.084Z,7.70
2022-11-20T00:41:17.070Z,7.68
2022-11-20T00:43:44.663Z,8.13
2022-11-20T00:46:16.696Z,7.97
2022-11-20T00:48:44.597Z,7.93
2022-11-20T00:51:14.527Z,7.40
2022-11-20T00:53:42.207Z,6.88
2022-11-20T00:56:12.649Z,8.15
2022-11-20T00:58:42.429Z,7.20
2022-11-20T01:01:11.104Z,6.97
2022-11-20T01:03:41.258Z,7.63
2022-11-20T01:06:14.804Z,7.15
2022-11-20T01:08:42.879Z,6.78
2022-11-20T01:11:14.033Z,6.82
2022-11-20T01:13:42.192Z,6.97
2022-11-20T01:16:11.164Z,6.75
2022-11-20T01:18:40.217Z,7.40
2022-11-20T01:21:11.070Z,7.20
2022-11-20T01:23:40.642Z,7.03
2022-11-20T01:26:11.565Z,7.55
2022-11-20T01:28:41.188Z,7.07
2022-11-20T01:31:26.259Z,6.90
2022-11-20T01:36:23.557Z,7.68
2022-11-20T01:39:01.807Z,6.90
2022-11-20T01:41:50.022Z,7.57
2022-11-20T01:44:20.067Z,6.88
2022-11-20T01:47:02.269Z,7.40
2022-11-20T01:49:51.713Z,7.32
2022-11-20T01:52:23.887Z,7.43
2022-11-20T01:54:58.638Z,7.53
2022-11-20T02:00:16.308Z,7.25
2022-11-20T02:02:54.584Z,7.72
2022-11-20T02:05:40.120Z,7.82
2022-11-20T02:08:08.449Z,7.90
2022-11-20T02:10:36.319Z,7.20
2022-11-20T02:13:23.312Z,7.65
2022-11-20T02:15:51.158Z,7.43
2022-11-20T02:18:21.343Z,7.10
2022-11-20T02:20:54.509Z,7.40
2022-11-20T02:23:44.252Z,7.85
2022-11-20T02:26:15.325Z,7.03
2022-11-20T02:28:42.652Z,7.13
2022-11-20T02:31:09.937Z,7.45
2022-11-20T02:33:37.186Z,7.13
2022-11-20T02:36:04.756Z,7.68
2022-11-20T02:38:32.571Z,7.40
2022-11-20T02:40:59.806Z,7.22
2022-11-20T02:43:27.074Z,7.35
2022-11-20T02:45:54.395Z,7.35
2022-11-20T02:48:22.401Z,7.32
2022-11-20T02:50:51.840Z,7.53
2022-11-20T02:53:19.132Z,7.68
2022-11-20T02:55:46.399Z,7.47
2022-11-20T02:58:13.624Z,7.25
2022-11-20T03:00:41.004Z,7.68
2022-11-20T03:03:08.332Z,7.50
2022-11-20T03:05:35.596Z,7.65
2022-11-20T03:08:02.832Z,7.63
2022-11-20T03:10:30.096Z,8.10
2022-11-20T03:12:57.588Z,7.82
2022-11-20T03:15:25.474Z,7.53
2022-11-20T03:17:56.176Z,6.85
2022-11-20T03:20:23.891Z,7.10
2022-11-20T03:22:51.184Z,7.03
2022-11-20T03:25:18.457Z,6.68
2022-11-20T03:27:45.772Z,6.57
2022-11-20T03:30:13.669Z,6.60
2022-11-20T03:32:40.927Z,6.47
2022-11-20T03:35:08.615Z,6.13
2022-11-20T03:37:35.903Z,6.65
2022-11-20T03:40:03.541Z,6.65
2022-11-20T03:42:48.865Z,6.20
2022-11-20T03:45:18.040Z,6.38
2022-11-20T03:47:46.175Z,6.30
2022-11-20T03:50:14.882Z,6.70
2022-11-20T03:52:42.564Z,6.78
2022-11-20T03:55:10.202Z,6.55
2022-11-20T03:57:37.448Z,7.03
2022-11-20T04:00:06.442Z,6.88
2022-11-20T04:02:33.712Z,6.68
2022-11-20T04:05:00.955Z,6.95
2022-11-20T04:07:28.208Z,6.50
2022-11-20T04:09:55.468Z,6.57
2022-11-20T04:12:22.730Z,7.00
2022-11-20T04:14:49.953Z,6.90
2022-11-20T04:17:17.335Z,7.22
2022-11-20T04:19:44.616Z,6.50
2022-11-20T04:22:13.187Z,6.90
2022-11-20T04:24:40.397Z,7.10
2022-11-20T04:27:07.663Z,7.30
2022-11-20T04:29:34.921Z,7.25
2022-11-20T04:32:02.227Z,7.32
2022-11-20T04:34:29.450Z,7.45
2022-11-20T04:36:56.779Z,6.80
2022-11-20T04:39:24.267Z,6.97
2022-11-20T04:42:11.660Z,7.30
2022-11-20T04:44:39.187Z,7.47
2022-11-20T04:47:06.494Z,7.88
2022-11-20T04:49:34.873Z,7.60
2022-11-20T04:52:02.159Z,7.38
2022-11-20T04:54:29.478Z,7.35
2022-11-20T04:56:56.742Z,7.60
2022-11-20T04:59:24.379Z,7.50
2022-11-20T05:01:52.020Z,7.93
2022-11-20T05:04:19.358Z,8.15
2022-11-20T05:06:46.793Z,7.68
2022-11-20T05:09:14.652Z,7.18
2022-11-20T05:11:42.297Z,7.30
2022-11-20T05:14:09.566Z,7.60
2022-11-20T05:16:37.222Z,8.27
2022-11-20T05:19:04.459Z,6.88
2022-11-20T05:21:34.715Z,7.40
2022-11-20T05:24:02.007Z,7.53
2022-11-20T05:26:29.199Z,7.20
2022-11-20T05:28:56.432Z,7.47
2022-11-20T05:31:28.197Z,7.10
2022-11-20T05:33:57.047Z,6.80
2022-11-20T05:36:24.718Z,6.65
2022-11-20T05:38:54.448Z,7.60
2022-11-20T05:41:24.049Z,7.47
2022-11-20T05:43:51.800Z,7.22
2022-11-20T05:46:26.423Z,7.47
2022-11-20T05:48:55.487Z,7.20
2022-11-20T05:51:22.968Z,7.20
2022-11-20T05:53:50.364Z,7.65
2022-11-20T05:56:20.285Z,6.80
2022-11-20T05:58:48.086Z,7.05
2022-11-20T06:01:24.746Z,6.88
2022-11-20T06:03:53.197Z,7.50
2022-11-20T06:06:20.986Z,7.53
2022-11-20T06:08:48.848Z,7.38
2022-11-20T06:11:17.123Z,7.55
2022-11-20T06:13:44.894Z,7.63
2022-11-20T06:16:14.614Z,7.25
2022-11-20T06:18:42.005Z,7.07
2022-11-20T06:21:18.214Z,7.10
2022-11-20T06:23:46.160Z,7.20
2022-11-20T06:26:16.582Z,7.43
2022-11-20T06:28:44.036Z,7.30
2022-11-20T06:31:14.384Z,6.95
2022-11-20T06:33:42.497Z,7.60
2022-11-20T06:36:11.221Z,7.10
2022-11-20T06:38:39.478Z,7.50
2022-11-20T06:41:08.102Z,7.60
2022-11-20T06:43:35.273Z,7.47
2022-11-20T06:46:02.561Z,7.43
2022-11-20T06:48:30.836Z,7.93
2022-11-20T06:50:59.201Z,7.55
2022-11-20T06:53:26.687Z,7.78
2022-11-20T06:55:56.604Z,7.78
2022-11-20T06:58:23.853Z,8.48
2022-11-20T07:00:51.098Z,8.38
2022-11-20T07:03:18.426Z,7.93
2022-11-20T07:05:46.927Z,8.48
2022-11-20T07:08:14.204Z,8.55
2022-11-20T07:10:41.413Z,8.48
2022-11-20T07:13:08.706Z,8.73
2022-11-20T07:15:36.038Z,8.85
2022-11-20T07:18:03.363Z,8.43
2022-11-20T07:20:30.639Z,8.90
2022-11-20T07:22:58.790Z,9.30
2022-11-20T07:25:27.409Z,9.02
2022-11-20T07:28:01.069Z,7.95
2022-11-20T07:30:29.242Z,8.80
2022-11-20T07:32:57.815Z,8.50
2022-11-20T07:35:25.885Z,8.73
2022-11-20T07:37:53.162Z,8.60
2022-11-20T07:40:20.893Z,8.80
2022-11-20T07:42:56.321Z,8.25
2022-11-20T07:45:25.129Z,8.80
2022-11-20T07:47:52.578Z,9.07
2022-11-20T07:50:20.563Z,9.13
2022-11-20T07:52:48.032Z,8.90
2022-11-20T07:55:16.301Z,9.32
2022-11-20T07:57:43.720Z,9.25
2022-11-20T08:00:12.684Z,9.85
2022-11-20T08:02:43.233Z,9.63
2022-11-20T08:05:11.466Z,9.82
2022-11-20T08:07:43.599Z,9.82
2022-11-20T08:10:14.402Z,11.20
2022-11-20T08:13:07.337Z,11.02
2022-11-20T08:15:34.877Z,10.93
2022-11-20T08:18:29.283Z,11.50
2022-11-20T08:20:51.801Z,11.65
2022-11-20T08:23:19.071Z,12.93
2022-11-20T08:25:51.123Z,11.43
2022-11-20T08:28:21.868Z,12.85
2022-11-20T08:30:51.155Z,13.43
2022-11-20T08:33:19.281Z,13.82
2022-11-20T08:35:46.856Z,14.30
2022-11-20T08:38:14.104Z,14.38
2022-11-20T08:40:41.365Z,15.57
2022-11-20T08:43:08.578Z,16.70
2022-11-20T08:45:35.846Z,16.33
2022-11-20T08:48:04.333Z,17.33
2022-11-20T08:50:33.930Z,16.85
2022-11-20T08:53:06.013Z,18.15
2022-11-20T08:55:36.242Z,18.55
2022-11-20T08:58:07.757Z,17.60
2022-11-20T09:00:35.549Z,17.45
2022-11-20T09:03:03.072Z,17.80
2022-11-20T09:05:30.752Z,19.77
2022-11-20T09:07:59.364Z,19.42
2022-11-20T09:10:27.272Z,19.58
2022-11-20T09:12:56.231Z,18.60
2022-11-20T09:15:24.278Z,19.52
2022-11-20T09:18:02.519Z,20.42
2022-11-20T09:20:31.370Z,20.83
2022-11-20T09:22:59.033Z,20.45
2022-11-20T09:25:26.501Z,22.08
2022-11-20T09:27:58.501Z,21.70
2022-11-20T09:30:26.293Z,22.15
2022-11-20T09:32:53.805Z,22.73
2022-11-20T09:35:21.142Z,22.85
2022-11-20T09:37:48.426Z,24.13
2022-11-20T09:40:25.167Z,24.25
2022-11-20T09:43:00.615Z,23.23
2022-11-20T09:45:47.373Z,25.50
2022-11-20T09:48:32.901Z,24.70
2022-11-20T09:51:17.865Z,23.60
2022-11-20T09:53:59.334Z,22.70
2022-11-20T09:56:29.162Z,23.10
2022-11-20T09:59:03.478Z,21.95
2022-11-20T10:01:37.163Z,23.83
2022-11-20T10:04:05.330Z,21.67
2022-11-20T10:06:45.330Z,22.83
2022-11-20T10:09:21.586Z,22.75
2022-11-20T10:12:05.542Z,23.05
2022-11-20T10:14:50.796Z,23.15
2022-11-20T10:17:21.154Z,23.50
2022-11-20T10:20:07.312Z,22.05
2022-11-20T10:22:56.000Z,22.77
2022-11-20T10:25:34.822Z,23.13
2022-11-20T10:28:12.497Z,23.25
2022-11-20T10:30:44.260Z,22.35
2022-11-20T10:33:24.794Z,23.92
2022-11-20T10:36:09.574Z,23.27
2022-11-20T10:38:44.136Z,24.15
2022-11-20T10:41:26.628Z,22.35
2022-11-20T10:44:37.369Z,22.80
2022-11-20T10:47:11.134Z,22.55
2022-11-20T10:49:38.496Z,23.40
2022-11-20T10:52:33.980Z,22.30
2022-11-20T10:57:48.640Z,22.98
2022-11-20T11:00:18.013Z,22.35
2022-11-20T11:02:54.911Z,22.08
2022-11-20T11:05:27.990Z,21.73
2022-11-20T11:07:57.313Z,22.05
2022-11-20T11:10:43.356Z,21.95
2022-11-20T11:13:24.861Z,21.73
2022-11-20T11:15:53.015Z,21.42
2022-11-20T11:18:34.806Z,22.10
2022-11-20T11:21:04.341Z,21.40
2022-11-20T11:23:38.696Z,22.08
2022-11-20T11:26:08.361Z,21.15
2022-11-20T11:28:35.953Z,21.15
2022-11-20T11:31:03.245Z,21.38
2022-11-20T11:33:32.721Z,22.20
2022-11-20T11:36:03.589Z,21.60
2022-11-20T11:38:41.514Z,22.92
2022-11-20T11:41:17.632Z,21.63
2022-11-20T11:44:13.063Z,22.35
2022-11-20T11:49:18.953Z,22.02
2022-11-20T11:52:06.229Z,21.42
2022-11-20T11:54:37.876Z,22.65
2022-11-20T11:57:35.905Z,22.13
2022-11-20T12:00:09.130Z,20.98
2022-11-20T12:02:50.768Z,22.02
2022-11-20T12:05:29.034Z,22.00
2022-11-20T12:08:07.017Z,22.20
2022-11-20T12:10:56.662Z,23.48
2022-11-20T12:13:40.770Z,23.83
2022-11-20T12:16:14.838Z,23.97
2022-11-20T12:18:43.365Z,24.25
2022-11-20T12:21:25.482Z,25.02
2022-11-20T12:24:08.158Z,24.33
2022-11-20T12:26:56.997Z,25.48
2022-11-20T12:29:51.647Z,25.95
2022-11-20T12:32:34.185Z,26.85
2022-11-20T12:35:22.602Z,26.60
2022-11-20T12:38:27.291Z,27.10
2022-11-20T12:41:45.389Z,26.48
2022-11-20T12:44:52.553Z,26.85
2022-11-20T12:47:45.712Z,28.00
2022-11-20T12:50:28.400Z,29.23
2022-11-20T12:53:05.260Z,29.08
2022-11-20T12:55:50.272Z,28.95
2022-11-20T13:01:43.658Z,28.60
2022-11-20T13:04:29.207Z,31.05
2022-11-20T13:06:57.584Z,29.52
2022-11-20T13:09:26.510Z,30.90
2022-11-20T13:11:56.490Z,30.00
2022-11-20T13:14:42.538Z,29.70
2022-11-20T13:17:25.735Z,28.52
2022-11-20T13:19:57.244Z,28.50
2022-11-20T13:22:45.988Z,29.55
2022-11-20T13:25:28.257Z,28.35
2022-11-20T13:27:57.164Z,29.02
2022-11-20T13:30:26.653Z,29.00
2022-11-20T13:33:24.566Z,28.38
2022-11-20T13:36:01.588Z,28.00
2022-11-20T13:38:33.864Z,29.05
2022-11-20T13:41:25.063Z,27.48
2022-11-20T13:43:55.111Z,28.75
2022-11-20T13:46:25.563Z,27.45
2022-11-20T13:48:54.694Z,26.95
2022-11-20T13:51:51.651Z,26.92
2022-11-20T13:54:42.450Z,28.77
2022-11-20T13:57:27.454Z,28.42
2022-11-20T14:00:12.752Z,26.60
2022-11-20T14:02:41.263Z,26.13
2022-11-20T14:05:22.842Z,26.02
2022-11-20T14:07:52.555Z,25.88
2022-11-20T14:10:31.412Z,26.73
2022-11-20T14:13:10.842Z,24.55
2022-11-20T14:15:44.872Z,23.17
2022-11-20T14:18:30.583Z,24.08
2022-11-20T14:21:01.197Z,24.63
2022-11-20T14:23:30.687Z,24.05
2022-11-20T14:25:58.224Z,24.48
2022-11-20T14:28:30.363Z,24.52
2022-11-20T14:30:58.370Z,22.55
2022-11-20T14:33:28.041Z,24.10
2022-11-20T14:35:59.530Z,23.23
2022-11-20T14:38:32.331Z,23.17
2022-11-20T14:41:17.250Z,21.38
2022-11-20T14:43:56.734Z,21.67
2022-11-20T14:46:25.212Z,21.85
2022-11-20T14:48:57.881Z,20.30
2022-11-20T14:51:34.399Z,21.95
2022-11-20T14:54:26.501Z,20.17
2022-11-20T14:56:58.484Z,20.65
2022-11-20T14:59:30.767Z,20.02
2022-11-20T15:02:06.990Z,20.23
2022-11-20T15:04:34.440Z,19.15
2022-11-20T15:07:01.814Z,19.40
2022-11-20T15:09:29.193Z,18.48
2022-11-20T15:12:04.525Z,19.42
2022-11-20T15:14:33.593Z,17.83
2022-11-20T15:17:00.959Z,17.85
2022-11-20T15:19:28.669Z,17.33
2022-11-20T15:21:56.096Z,16.90
2022-11-20T15:24:23.665Z,16.58
2022-11-20T15:26:51.081Z,16.92
2022-11-20T15:29:19.833Z,17.13
2022-11-20T15:31:47.457Z,16.08
2022-11-20T15:34:16.401Z,15.88
2022-11-20T15:36:44.854Z,16.13
2022-11-20T15:39:12.558Z,14.23
2022-11-20T15:41:40.373Z,15.05
2022-11-20T15:44:08.098Z,14.30
2022-11-20T15:46:43.279Z,14.60
2022-11-20T15:49:19.867Z,14.18
2022-11-20T15:51:49.763Z,13.88
2022-11-20T15:54:21.449Z,13.18
2022-11-20T15:56:50.637Z,13.88
2022-11-20T15:59:18.014Z,13.35
2022-11-20T16:01:45.441Z,12.85
2022-11-20T16:04:17.234Z,13.30
2022-11-20T16:06:44.513Z,13.32
2022-11-20T16:09:12.507Z,12.00
2022-11-20T16:11:40.062Z,12.45
2022-11-20T16:14:28.577Z,12.48
2022-11-20T16:16:55.888Z,12.23
2022-11-20T16:19:23.182Z,12.18
2022-11-20T16:21:50.454Z,12.15
2022-11-20T16:24:17.911Z,12.07
2022-11-20T16:26:45.133Z,11.40
2022-11-20T16:29:12.408Z,11.90
2022-11-20T16:31:39.852Z,11.52
2022-11-20T16:34:12.253Z,11.80
2022-11-20T16:36:50.794Z,11.65
2022-11-20T16:39:23.364Z,11.70
2022-11-20T16:41:51.260Z,11.68
2022-11-20T16:44:18.550Z,11.80
2022-11-20T16:46:45.749Z,11.80
2022-11-20T16:49:14.961Z,11.35
2022-11-20T16:51:42.876Z,11.00
2022-11-20T16:54:13.045Z,11.75
2022-11-20T16:56:43.002Z,10.88
2022-11-20T16:59:10.817Z,11.65
2022-11-20T17:01:40.334Z,11.18
2022-11-20T17:04:08.212Z,11.82
2022-11-20T17:06:38.977Z,11.43
2022-11-20T17:09:06.996Z,11.48
2022-11-20T17:11:34.712Z,11.82
2022-11-20T17:14:04.801Z,12.38
2022-11-20T17:16:32.207Z,11.05
2022-11-20T17:19:03.180Z,11.90
2022-11-20T17:21:32.466Z,11.57
2022-11-20T17:24:07.808Z,11.60
2022-11-20T17:26:36.103Z,11.20
2022-11-20T17:29:12.641Z,11.82
2022-11-20T17:31:40.682Z,10.23
2022-11-20T17:34:11.157Z,12.43
2022-11-20T17:36:45.080Z,12.57
2022-11-20T17:39:14.484Z,13.55
2022-11-20T17:41:42.140Z,14.50
2022-11-20T17:44:13.515Z,15.68
2022-11-20T17:46:41.173Z,16.92
2022-11-20T17:49:08.857Z,19.65
2022-11-20T17:51:36.613Z,21.80
2022-11-20T17:54:07.584Z,23.00
2022-11-20T17:56:54.404Z,22.50
2022-11-20T17:59:22.111Z,23.05
2022-11-20T18:01:49.801Z,23.27
2022-11-20T18:04:17.356Z,22.90
2022-11-20T18:06:44.626Z,23.10
2022-11-20T18:09:12.268Z,22.73
2022-11-20T18:11:41.179Z,21.80
2022-11-20T18:14:32.057Z,22.10
2022-11-20T18:17:06.335Z,22.65
2022-11-20T18:19:42.343Z,21.88
2022-11-20T18:22:16.802Z,21.02
2022-11-20T18:24:45.717Z,21.45
2022-11-20T18:27:19.306Z,19.90
2022-11-20T18:29:48.780Z,20.58
2022-11-20T18:32:16.043Z,19.58
2022-11-20T18:34:43.320Z,20.73
2022-11-20T18:37:10.687Z,20.08
2022-11-20T18:39:37.965Z,19.42
2022-11-20T18:42:23.768Z,19.67
2022-11-20T18:44:51.351Z,19.67
2022-11-20T18:47:24.958Z,18.98
2022-11-20T18:49:54.022Z,19.23
2022-11-20T18:52:35.878Z,18.75
2022-11-20T18:55:05.353Z,19.17
2022-11-20T18:57:32.861Z,18.73
2022-11-20T19:00:05.081Z,18.95
2022-11-20T19:02:41.059Z,18.52
2022-11-20T19:05:10.488Z,18.63
2022-11-20T19:07:37.814Z,18.17
2022-11-20T19:10:06.243Z,18.23
2022-11-20T19:12:33.694Z,17.40
2022-11-20T19:15:00.981Z,17.35
2022-11-20T19:17:28.203Z,18.33
2022-11-20T19:19:55.592Z,17.75
2022-11-20T19:22:23.064Z,18.45
2022-11-20T19:24:50.430Z,16.05
2022-11-20T19:27:17.730Z,18.52
2022-11-20T19:29:44.994Z,16.67
2022-11-20T19:32:12.254Z,17.85
2022-11-20T19:34:39.498Z,18.48
2022-11-20T19:37:06.973Z,16.13
2022-11-20T19:39:36.259Z,15.85
2022-11-20T19:42:03.506Z,15.35
2022-11-20T19:44:32.179Z,14.68
2022-11-20T19:46:59.939Z,13.95
2022-11-20T19:49:27.205Z,13.90
2022-11-20T19:51:54.452Z,12.73
2022-11-20T19:54:21.694Z,12.27
2022-11-20T19:56:50.512Z,11.50
2022-11-20T19:59:17.807Z,11.73
2022-11-20T20:01:45.183Z,11.35
2022-11-20T20:04:12.918Z,10.52
2022-11-20T20:06:41.717Z,10.55
2022-11-20T20:09:12.011Z,11.20
2022-11-20T20:11:40.523Z,10.52
2022-11-20T20:14:14.972Z,10.63
2022-11-20T20:16:43.144Z,10.00
2022-11-20T20:19:14.968Z,9.45
2022-11-20T20:21:43.140Z,9.38
2022-11-20T20:24:11.117Z,8.55
2022-11-20T20:26:38.511Z,8.40
2022-11-20T20:29:06.012Z,9.27
2022-11-20T20:31:34.442Z,8.93
2022-11-20T20:47:07.351Z,7.50
2022-11-20T20:49:35.128Z,7.43
2022-11-20T20:52:02.423Z,7.93
2022-11-20T20:54:34.216Z,7.63
2022-11-20T20:57:01.811Z,7.15
2022-11-20T20:59:29.052Z,7.35
2022-11-20T21:01:56.327Z,6.80
2022-11-20T21:04:23.632Z,6.65
2022-11-20T21:06:50.869Z,6.72
2022-11-20T21:09:18.752Z,6.75
2022-11-20T21:11:46.045Z,7.10
2022-11-20T21:14:13.274Z,6.57
2022-11-20T21:16:44.053Z,6.82
2022-11-20T21:19:12.206Z,6.45
2022-11-20T21:21:58.071Z,6.50
2022-11-20T21:24:31.126Z,6.35
2022-11-20T21:26:59.838Z,6.25
2022-11-20T21:29:28.090Z,6.13
2022-11-20T21:31:56.230Z,6.05
2022-11-20T21:34:24.389Z,6.22
2022-11-20T21:36:52.234Z,6.07
2022-11-20T21:39:21.777Z,5.80
2022-11-20T21:41:49.200Z,5.88
2022-11-20T21:44:30.886Z,5.35
2022-11-20T21:46:58.954Z,5.68
2022-11-20T21:49:26.387Z,5.85
2022-11-20T21:51:53.983Z,5.53
2022-11-20T21:54:21.397Z,5.88
2022-11-20T21:56:48.855Z,5.63
2022-11-20T21:59:16.067Z,5.38
2022-11-20T22:01:43.293Z,5.13
2022-11-20T22:04:15.366Z,5.55
2022-11-20T22:06:42.710Z,5.22
2022-11-20T22:09:11.034Z,5.03
2022-11-20T22:11:38.261Z,5.00
2022-11-20T22:14:20.699Z,4.90
2022-11-20T22:16:52.171Z,5.15
2022-11-20T22:19:23.557Z,4.80
2022-11-20T22:21:51.458Z,4.20
2022-11-20T22:24:21.236Z,4.60
2022-11-20T22:26:49.145Z,4.50
2022-11-20T22:29:21.148Z,4.10
2022-11-20T22:31:51.013Z,4.35
2022-11-20T22:34:18.241Z,3.80
2022-11-20T22:36:45.716Z,3.90
2022-11-20T22:39:13.021Z,3.78
2022-11-20T22:41:40.252Z,3.80
2022-11-20T22:44:08.703Z,4.18
2022-11-20T22:46:38.160Z,4.20
2022-11-20T22:49:08.763Z,3.85
2022-11-20T22:51:38.753Z,4.15
2022-11-20T22:54:06.404Z,4.10
2022-11-20T22:56:34.665Z,4.25
2022-11-20T22:59:02.475Z,3.95
2022-11-20T23:01:32.392Z,3.78
2022-11-20T23:04:09.537Z,3.70
2022-11-20T23:06:36.817Z,4.28
2022-11-20T23:09:05.703Z,3.78
2022-11-20T23:11:33.598Z,3.63
2022-11-20T23:14:04.140Z,3.80
2022-11-20T23:16:32.850Z,3.03
2022-11-20T23:19:03.941Z,3.17
2022-11-20T23:21:31.752Z,3.20
2022-11-20T23:23:59.789Z,3.83
2022-11-20T23:26:29.755Z,3.47
2022-11-20T23:28:58.644Z,3.60
2022-11-20T23:31:27.464Z,3.70
2022-11-20T23:33:55.302Z,3.65
2022-11-20T23:36:22.587Z,3.90
2022-11-20T23:38:50.049Z,3.65
2022-11-20T23:41:18.042Z,3.33
2022-11-20T23:43:45.445Z,3.30
2022-11-20T23:46:16.436Z,3.50
2022-11-20T23:48:45.111Z,3.63
2022-11-20T23:51:13.384Z,2.92
2022-11-20T23:53:40.694Z,3.25
2022-11-20T23:56:08.424Z,3.03
2022-11-20T23:58:39.277Z,2.95
